createdAt,value
2022-10-25T00:01:23.733Z,14.30
2022-10-25T00:03:53.124Z,14.40
2022-10-25T00:06:27.522Z,14.30
2022-10-25T00:08:59.106Z,14.30
2022-10-25T00:11:33.248Z,14.30
2022-10-25T00:14:06.611Z,14.30
2022-10-25T00:16:40.383Z,14.30
2022-10-25T00:19:08.787Z,14.30
2022-10-25T00:21:35.780Z,14.30
2022-10-25T00:24:06.150Z,14.30
2022-10-25T00:26:34.853Z,14.30
2022-10-25T00:29:06.549Z,14.20
2022-10-25T00:31:35.423Z,14.20
2022-10-25T00:34:02.883Z,14.20
2022-10-25T00:36:31.911Z,14.20
2022-10-25T00:38:59.551Z,14.20
2022-10-25T00:41:31.862Z,14.20
2022-10-25T00:44:36.979Z,14.20
2022-10-25T00:47:17.985Z,14.30
2022-10-25T00:49:53.173Z,14.30
2022-10-25T00:52:20.713Z,14.20
2022-10-25T00:54:52.238Z,14.30
2022-10-25T00:57:33.050Z,14.30
2022-10-25T01:00:02.184Z,14.30
2022-10-25T01:02:29.671Z,14.30
2022-10-25T01:04:59.928Z,14.30
2022-10-25T01:07:36.317Z,14.30
2022-10-25T01:10:05.586Z,14.20
2022-10-25T01:12:37.346Z,14.20
2022-10-25T01:15:11.073Z,14.20
2022-10-25T01:18:17.951Z,14.20
2022-10-25T01:21:21.748Z,14.30
2022-10-25T01:24:22.012Z,14.30
2022-10-25T01:27:25.251Z,14.30
2022-10-25T01:30:20.076Z,14.30
2022-10-25T01:33:01.945Z,14.20
2022-10-25T01:35:39.870Z,14.20
2022-10-25T01:38:25.113Z,14.20
2022-10-25T01:41:04.282Z,14.10
2022-10-25T01:43:57.674Z,14.10
2022-10-25T01:46:29.194Z,14.20
2022-10-25T01:49:04.170Z,14.20
2022-10-25T01:51:38.245Z,14.30
2022-10-25T01:54:19.528Z,14.30
2022-10-25T01:57:25.611Z,14.30
2022-10-25T02:00:12.523Z,14.30
2022-10-25T02:02:53.675Z,14.30
2022-10-25T02:05:33.297Z,14.40
2022-10-25T02:08:29.358Z,14.30
2022-10-25T02:11:03.647Z,14.30
2022-10-25T02:13:58.091Z,14.30
2022-10-25T02:16:35.262Z,14.30
2022-10-25T02:19:08.141Z,14.30
2022-10-25T02:21:38.227Z,14.30
2022-10-25T02:24:17.208Z,14.30
2022-10-25T02:26:45.509Z,14.30
2022-10-25T02:29:15.908Z,14.30
2022-10-25T02:31:49.601Z,14.20
2022-10-25T02:34:18.090Z,14.30
2022-10-25T02:36:53.570Z,14.20
2022-10-25T02:39:30.539Z,14.20
2022-10-25T02:42:01.135Z,14.20
2022-10-25T02:44:30.492Z,14.20
2022-10-25T02:46:59.907Z,14.20
2022-10-25T02:49:27.009Z,14.20
2022-10-25T02:51:54.793Z,14.20
2022-10-25T02:54:23.512Z,14.10
2022-10-25T02:56:53.120Z,14.10
2022-10-25T02:59:21.574Z,14.10
2022-10-25T03:01:58.828Z,14.10
2022-10-25T03:04:26.112Z,14.10
2022-10-25T03:06:59.570Z,14.10
2022-10-25T03:09:27.596Z,14.10
2022-10-25T03:11:55.611Z,14.10
2022-10-25T03:14:25.860Z,14.10
2022-10-25T03:16:55.037Z,14.00
2022-10-25T03:19:22.183Z,14.00
2022-10-25T03:21:50.048Z,14.00
2022-10-25T03:24:17.477Z,14.00
2022-10-25T03:26:47.818Z,14.00
2022-10-25T03:29:14.984Z,14.00
2022-10-25T03:31:44.163Z,14.00
2022-10-25T03:34:12.323Z,14.00
2022-10-25T03:36:41.259Z,14.00
2022-10-25T03:39:08.171Z,14.00
2022-10-25T03:41:36.571Z,14.00
2022-10-25T03:44:04.269Z,13.90
2022-10-25T03:46:32.525Z,13.90
2022-10-25T03:48:59.489Z,13.90
2022-10-25T03:51:27.585Z,13.90
2022-10-25T03:54:01.141Z,13.90
2022-10-25T03:56:30.118Z,13.90
2022-10-25T03:58:57.168Z,13.80
2022-10-25T04:01:26.009Z,13.90
2022-10-25T04:03:53.176Z,13.80
2022-10-25T04:06:21.306Z,13.80
2022-10-25T04:08:54.411Z,13.80
2022-10-25T04:11:21.336Z,13.80
2022-10-25T04:13:48.418Z,13.80
2022-10-25T04:16:19.217Z,13.80
2022-10-25T04:18:47.410Z,13.80
2022-10-25T04:21:14.463Z,13.80
2022-10-25T04:23:42.293Z,13.80
2022-10-25T04:26:09.127Z,13.80
2022-10-25T04:28:36.185Z,13.80
2022-10-25T04:31:04.566Z,13.80
2022-10-25T04:33:32.105Z,13.80
2022-10-25T04:36:00.437Z,13.90
2022-10-25T04:38:28.660Z,13.90
2022-10-25T04:41:23.154Z,13.90
2022-10-25T04:43:56.265Z,13.90
2022-10-25T04:46:26.928Z,14.00
2022-10-25T04:48:59.919Z,13.90
2022-10-25T04:51:29.342Z,14.00
2022-10-25T04:54:04.129Z,14.00
2022-10-25T04:56:31.237Z,14.00
2022-10-25T04:59:03.091Z,14.00
2022-10-25T05:01:33.365Z,13.90
2022-10-25T05:04:01.602Z,13.90
2022-10-25T05:06:32.451Z,13.90
2022-10-25T05:08:59.674Z,13.90
2022-10-25T05:11:29.858Z,13.90
2022-10-25T05:13:57.696Z,14.00
2022-10-25T05:16:26.533Z,13.90
2022-10-25T05:18:55.556Z,13.90
2022-10-25T05:21:28.829Z,13.90
2022-10-25T05:24:01.409Z,13.90
2022-10-25T05:26:30.321Z,13.90
2022-10-25T05:29:00.629Z,14.00
2022-10-25T05:31:30.270Z,14.00
2022-10-25T05:33:59.959Z,14.00
2022-10-25T05:36:29.778Z,14.00
2022-10-25T05:38:56.723Z,14.00
2022-10-25T05:41:25.195Z,14.00
2022-10-25T05:43:57.989Z,14.10
2022-10-25T05:46:28.779Z,14.20
2022-10-25T05:48:59.618Z,14.00
2022-10-25T05:52:01.770Z,13.90
2022-10-25T05:54:35.963Z,13.90
2022-10-25T05:57:11.041Z,13.90
2022-10-25T05:59:59.016Z,13.90
2022-10-25T06:02:26.595Z,13.90
2022-10-25T06:04:56.373Z,13.90
2022-10-25T06:07:25.271Z,13.80
2022-10-25T06:09:56.532Z,13.80
2022-10-25T06:12:23.495Z,13.90
2022-10-25T06:14:56.083Z,13.80
2022-10-25T06:17:24.157Z,13.80
2022-10-25T06:19:51.043Z,13.80
2022-10-25T06:22:20.402Z,13.80
2022-10-25T06:24:52.202Z,13.80
2022-10-25T06:27:20.852Z,13.80
2022-10-25T06:29:48.041Z,13.70
2022-10-25T06:32:18.171Z,13.70
2022-10-25T06:34:45.716Z,13.60
2022-10-25T06:37:24.078Z,13.60
2022-10-25T06:39:51.164Z,13.60
2022-10-25T06:42:20.788Z,13.50
2022-10-25T06:44:51.105Z,13.50
2022-10-25T06:47:20.051Z,13.50
2022-10-25T06:49:47.133Z,13.50
2022-10-25T06:52:13.992Z,13.60
2022-10-25T06:54:54.072Z,13.50
2022-10-25T06:57:29.461Z,13.60
2022-10-25T06:59:56.366Z,13.60
2022-10-25T07:02:30.495Z,13.60
2022-10-25T07:04:57.421Z,13.60
2022-10-25T07:07:24.379Z,13.70
2022-10-25T07:10:01.110Z,13.70
2022-10-25T07:12:38.221Z,13.70
2022-10-25T07:15:08.209Z,13.60
2022-10-25T07:17:38.316Z,13.70
2022-10-25T07:20:12.805Z,13.60
2022-10-25T07:22:39.875Z,13.70
2022-10-25T07:27:37.435Z,13.70
2022-10-25T07:30:05.066Z,13.60
2022-10-25T07:35:21.614Z,13.50
2022-10-25T07:37:49.845Z,13.60
2022-10-25T07:40:23.068Z,13.70
2022-10-25T07:42:56.323Z,13.80
2022-10-25T07:45:27.630Z,13.80
2022-10-25T07:47:56.090Z,13.90
2022-10-25T07:50:24.397Z,13.90
2022-10-25T07:52:56.521Z,13.90
2022-10-25T07:55:24.405Z,13.90
2022-10-25T07:57:58.972Z,13.80
2022-10-25T08:00:33.311Z,13.80
2022-10-25T08:03:00.609Z,13.70
2022-10-25T08:05:27.874Z,13.80
2022-10-25T08:07:56.513Z,13.80
2022-10-25T08:10:26.899Z,13.70
2022-10-25T08:12:56.879Z,13.80
2022-10-25T08:15:24.884Z,13.70
2022-10-25T08:18:05.472Z,13.70
2022-10-25T08:21:00.161Z,13.70
2022-10-25T08:23:25.395Z,13.70
2022-10-25T08:25:53.763Z,13.70
2022-10-25T08:28:20.814Z,13.70
2022-10-25T08:30:48.739Z,13.70
2022-10-25T08:33:15.644Z,13.80
2022-10-25T08:35:43.817Z,13.90
2022-10-25T08:38:19.649Z,13.90
2022-10-25T08:41:16.497Z,13.90
2022-10-25T08:44:16.802Z,14.00
2022-10-25T08:47:21.568Z,14.00
2022-10-25T08:49:57.955Z,14.20
2022-10-25T08:52:46.168Z,14.30
2022-10-25T08:55:38.897Z,14.40
2022-10-25T08:58:17.013Z,14.50
2022-10-25T09:00:49.231Z,14.60
2022-10-25T09:03:24.871Z,14.60
2022-10-25T09:06:16.696Z,14.60
2022-10-25T09:09:19.819Z,14.60
2022-10-25T09:12:06.363Z,14.80
2022-10-25T09:14:55.854Z,14.80
2022-10-25T09:17:33.496Z,14.90
2022-10-25T09:20:19.264Z,14.90
2022-10-25T09:23:15.365Z,15.00
2022-10-25T09:25:54.566Z,15.10
2022-10-25T09:28:30.015Z,15.00
2022-10-25T09:30:59.890Z,15.00
2022-10-25T09:33:33.208Z,14.90
2022-10-25T09:36:00.239Z,14.90
2022-10-25T09:38:53.286Z,15.00
2022-10-25T09:41:46.474Z,15.00
2022-10-25T09:44:22.665Z,15.10
2022-10-25T09:47:08.839Z,15.10
2022-10-25T09:49:55.926Z,15.10
2022-10-25T09:52:47.256Z,15.10
2022-10-25T09:55:44.727Z,15.10
2022-10-25T09:58:19.567Z,15.10
2022-10-25T10:00:46.781Z,15.20
2022-10-25T10:03:14.555Z,15.20
2022-10-25T10:05:52.451Z,15.30
2022-10-25T10:08:22.625Z,15.30
2022-10-25T10:10:53.829Z,15.30
2022-10-25T10:13:36.992Z,15.30
2022-10-25T10:16:16.007Z,15.50
2022-10-25T10:18:44.344Z,15.60
2022-10-25T10:21:20.536Z,15.80
2022-10-25T10:23:51.689Z,15.90
2022-10-25T10:26:55.474Z,15.90
2022-10-25T10:29:26.498Z,15.90
2022-10-25T10:32:00.865Z,15.90
2022-10-25T10:34:50.943Z,16.00
2022-10-25T10:37:31.216Z,16.00
2022-10-25T10:40:04.747Z,16.10
2022-10-25T10:42:38.480Z,16.10
2022-10-25T10:45:08.674Z,16.10
2022-10-25T10:47:40.595Z,16.20
2022-10-25T10:50:33.156Z,16.20
2022-10-25T10:53:21.231Z,16.20
2022-10-25T10:56:21.384Z,16.20
2022-10-25T10:58:53.613Z,16.10
2022-10-25T11:01:36.084Z,16.10
2022-10-25T11:04:03.662Z,16.20
2022-10-25T11:07:17.684Z,16.60
2022-10-25T11:10:36.560Z,17.70
2022-10-25T11:13:18.454Z,18.70
2022-10-25T11:16:01.827Z,18.80
2022-10-25T11:18:57.049Z,18.20
2022-10-25T11:21:46.133Z,17.70
2022-10-25T11:24:38.206Z,17.50
2022-10-25T11:27:17.493Z,17.40
2022-10-25T11:30:14.193Z,18.00
2022-10-25T11:33:08.891Z,18.50
2022-10-25T11:35:59.810Z,19.40
2022-10-25T11:38:55.429Z,20.70
2022-10-25T11:41:53.825Z,22.00
2022-10-25T11:44:30.712Z,21.10
2022-10-25T11:47:15.194Z,20.60
2022-10-25T11:50:08.895Z,20.60
2022-10-25T11:53:13.690Z,19.90
2022-10-25T11:56:16.850Z,19.80
2022-10-25T11:58:56.699Z,20.10
2022-10-25T12:01:37.848Z,20.30
2022-10-25T12:04:40.224Z,20.00
2022-10-25T12:07:28.488Z,20.20
2022-10-25T12:10:10.073Z,20.20
2022-10-25T12:12:59.141Z,20.10
2022-10-25T12:15:41.442Z,19.80
2022-10-25T12:18:15.542Z,20.20
2022-10-25T12:20:46.276Z,20.70
2022-10-25T12:23:19.184Z,21.80
2022-10-25T12:26:15.495Z,22.70
2022-10-25T12:28:59.357Z,23.40
2022-10-25T12:31:37.221Z,23.10
2022-10-25T12:34:37.482Z,21.60
2022-10-25T12:37:15.588Z,21.00
2022-10-25T12:39:56.493Z,20.70
2022-10-25T12:42:43.208Z,20.60
2022-10-25T12:48:31.682Z,20.40
2022-10-25T12:51:24.487Z,20.00
2022-10-25T12:54:38.561Z,20.00
2022-10-25T12:57:36.701Z,20.00
2022-10-25T13:00:18.160Z,19.90
2022-10-25T13:03:10.598Z,19.80
2022-10-25T13:06:22.817Z,19.90
2022-10-25T13:08:50.869Z,19.80
2022-10-25T13:11:22.411Z,19.30
2022-10-25T13:13:54.118Z,18.80
2022-10-25T13:16:30.946Z,18.70
2022-10-25T13:19:25.848Z,18.70
2022-10-25T13:22:36.016Z,18.70
2022-10-25T13:25:16.006Z,18.80
2022-10-25T13:28:26.420Z,18.80
2022-10-25T13:31:32.102Z,18.80
2022-10-25T13:34:16.040Z,18.70
2022-10-25T13:37:09.744Z,18.70
2022-10-25T13:39:47.065Z,18.60
2022-10-25T13:42:19.456Z,18.60
2022-10-25T13:46:04.932Z,18.50
2022-10-25T13:48:37.725Z,18.20
2022-10-25T13:51:22.347Z,18.10
2022-10-25T13:54:14.465Z,18.10
2022-10-25T13:57:59.993Z,17.90
2022-10-25T14:01:26.206Z,17.90
2022-10-25T14:04:20.487Z,17.90
2022-10-25T14:06:48.553Z,17.90
2022-10-25T14:10:23.675Z,17.90
2022-10-25T14:13:03.377Z,17.80
2022-10-25T14:15:46.223Z,17.80
2022-10-25T14:18:22.571Z,17.70
2022-10-25T14:21:02.263Z,17.70
2022-10-25T14:26:17.440Z,18.00
2022-10-25T14:28:44.754Z,17.90
2022-10-25T14:31:20.094Z,17.90
2022-10-25T14:33:54.100Z,17.90
2022-10-25T14:36:30.511Z,17.80
2022-10-25T14:39:01.350Z,17.80
2022-10-25T14:41:34.236Z,17.90
2022-10-25T14:46:45.116Z,17.90
2022-10-25T14:49:12.047Z,17.80
2022-10-25T14:51:49.980Z,17.70
2022-10-25T14:54:29.226Z,17.50
2022-10-25T14:57:06.962Z,17.50
2022-10-25T15:00:00.215Z,17.40
2022-10-25T15:02:46.419Z,17.40
2022-10-25T15:05:25.206Z,17.50
2022-10-25T15:08:00.133Z,17.60
2022-10-25T15:10:52.478Z,17.60
2022-10-25T15:13:41.099Z,17.60
2022-10-25T15:16:42.675Z,17.50
2022-10-25T15:19:13.281Z,17.40
2022-10-25T15:22:08.573Z,17.40
2022-10-25T15:24:49.222Z,17.30
2022-10-25T15:27:39.605Z,17.30
2022-10-25T15:30:07.223Z,17.20
2022-10-25T15:32:36.575Z,17.20
2022-10-25T15:35:04.111Z,17.10
2022-10-25T15:37:32.166Z,17.10
2022-10-25T15:40:01.291Z,17.10
2022-10-25T15:42:28.509Z,17.10
2022-10-25T15:44:56.717Z,17.10
2022-10-25T15:47:32.593Z,17.10
2022-10-25T15:50:01.491Z,17.00
2022-10-25T15:52:29.552Z,16.90
2022-10-25T15:54:56.714Z,16.70
2022-10-25T15:57:27.554Z,16.80
2022-10-25T15:59:54.927Z,16.80
2022-10-25T16:02:28.699Z,16.80
2022-10-25T16:04:57.029Z,16.70
2022-10-25T16:07:33.612Z,16.60
2022-10-25T16:10:03.237Z,16.70
2022-10-25T16:12:33.876Z,16.60
2022-10-25T16:15:03.765Z,16.60
2022-10-25T16:18:04.012Z,16.50
2022-10-25T16:24:08.541Z,16.40
2022-10-25T16:26:53.385Z,16.40
2022-10-25T16:33:11.892Z,16.30
2022-10-25T16:35:55.942Z,16.20
2022-10-25T16:47:22.055Z,16.00
2022-10-25T16:49:52.103Z,15.90
2022-10-25T16:52:25.684Z,15.80
2022-10-25T16:54:58.034Z,15.80
2022-10-25T16:57:33.470Z,15.70
2022-10-25T17:00:04.349Z,15.70
2022-10-25T17:02:32.647Z,15.70
2022-10-25T17:05:05.392Z,15.60
2022-10-25T17:07:32.808Z,15.60
2022-10-25T17:10:00.486Z,15.60
2022-10-25T17:12:29.837Z,15.50
2022-10-25T17:14:56.760Z,15.50
2022-10-25T17:19:51.406Z,15.50
2022-10-25T17:22:20.836Z,15.50
2022-10-25T17:24:48.222Z,15.40
2022-10-25T17:30:12.279Z,15.40
2022-10-25T17:32:42.739Z,15.30
2022-10-25T17:35:11.697Z,15.30
2022-10-25T17:37:49.506Z,15.30
2022-10-25T17:40:18.015Z,15.30
2022-10-25T17:42:47.365Z,15.20
2022-10-25T17:45:19.776Z,15.10
2022-10-25T17:47:53.879Z,15.10
2022-10-25T17:50:22.869Z,15.10
2022-10-25T17:52:51.758Z,15.00
2022-10-25T17:55:20.730Z,15.10
2022-10-25T17:57:50.552Z,15.10
2022-10-25T18:00:20.837Z,15.10
2022-10-25T18:02:52.772Z,15.10
2022-10-25T18:05:21.768Z,15.10
2022-10-25T18:07:49.857Z,15.20
2022-10-25T18:10:19.423Z,15.20
2022-10-25T18:12:48.976Z,15.20
2022-10-25T18:15:20.628Z,15.20
2022-10-25T18:17:59.388Z,15.20
2022-10-25T18:20:26.435Z,15.20
2022-10-25T18:22:55.454Z,15.30
2022-10-25T18:25:23.484Z,15.30
2022-10-25T18:27:51.598Z,15.20
2022-10-25T18:30:19.733Z,15.20
2022-10-25T18:32:47.320Z,15.20
2022-10-25T18:35:15.906Z,15.20
2022-10-25T18:37:42.967Z,15.30
2022-10-25T18:40:11.745Z,15.30
2022-10-25T18:42:42.631Z,15.40
2022-10-25T18:45:10.818Z,15.30
2022-10-25T18:47:37.921Z,15.30
2022-10-25T18:50:06.008Z,15.30
2022-10-25T18:52:33.291Z,15.30
2022-10-25T18:55:05.350Z,15.30
2022-10-25T18:57:35.038Z,15.30
2022-10-25T19:00:11.758Z,15.30
2022-10-25T19:02:40.741Z,15.10
2022-10-25T19:05:10.163Z,15.00
2022-10-25T19:07:39.946Z,15.10
2022-10-25T19:10:09.404Z,15.10
2022-10-25T19:12:41.156Z,15.00
2022-10-25T19:15:16.111Z,15.00
2022-10-25T19:17:48.218Z,15.00
2022-10-25T19:20:18.758Z,15.00
2022-10-25T19:22:47.405Z,14.90
2022-10-25T19:25:19.075Z,14.90
2022-10-25T19:27:49.958Z,14.90
2022-10-25T19:30:19.128Z,15.00
2022-10-25T19:32:47.259Z,15.00
2022-10-25T19:35:22.344Z,14.90
2022-10-25T19:37:50.773Z,14.90
2022-10-25T19:40:19.084Z,14.80
2022-10-25T19:42:46.106Z,14.70
2022-10-25T19:45:13.267Z,14.70
2022-10-25T19:47:41.711Z,14.60
2022-10-25T19:50:10.177Z,14.50
2022-10-25T19:52:42.979Z,14.40
2022-10-25T19:55:11.112Z,14.50
2022-10-25T19:57:38.168Z,14.50
2022-10-25T20:00:09.921Z,14.50
2022-10-25T20:02:40.793Z,14.40
2022-10-25T20:07:39.213Z,14.40
2022-10-25T20:10:10.617Z,14.30
2022-10-25T20:12:40.708Z,14.40
2022-10-25T20:15:14.627Z,14.40
2022-10-25T20:17:43.066Z,14.40
2022-10-25T20:20:12.788Z,14.40
2022-10-25T20:22:42.303Z,14.40
2022-10-25T20:25:13.175Z,14.40
2022-10-25T20:27:40.444Z,14.40
2022-10-25T20:30:07.905Z,14.50
2022-10-25T20:32:35.710Z,14.50
2022-10-25T20:37:31.894Z,14.60
2022-10-25T20:39:58.834Z,14.60
2022-10-25T20:42:25.766Z,14.50
2022-10-25T20:44:52.971Z,14.50
2022-10-25T20:47:20.147Z,14.50
2022-10-25T20:49:49.334Z,14.60
2022-10-25T20:52:17.496Z,14.50
2022-10-25T20:54:45.152Z,14.50
2022-10-25T20:57:12.164Z,14.50
2022-10-25T20:59:39.065Z,14.50
2022-10-25T21:02:06.019Z,14.60
2022-10-25T21:04:42.678Z,14.50
2022-10-25T21:07:21.564Z,14.50
2022-10-25T21:09:49.522Z,14.50
2022-10-25T21:12:16.739Z,14.50
2022-10-25T21:14:45.681Z,14.60
2022-10-25T21:17:14.718Z,14.60
2022-10-25T21:19:41.666Z,14.60
2022-10-25T21:22:11.262Z,14.70
2022-10-25T21:24:40.756Z,14.60
2022-10-25T21:27:10.016Z,14.70
2022-10-25T21:29:40.102Z,14.70
2022-10-25T21:32:07.972Z,14.80
2022-10-25T21:34:34.865Z,14.90
2022-10-25T21:37:02.063Z,14.80
2022-10-25T21:39:29.092Z,14.80
2022-10-25T21:41:56.037Z,14.90
2022-10-25T21:44:23.570Z,14.90
2022-10-25T21:46:50.660Z,14.90
2022-10-25T21:49:18.656Z,14.80
2022-10-25T21:51:48.175Z,14.90
2022-10-25T21:54:15.315Z,14.90
2022-10-25T21:56:42.356Z,15.00
2022-10-25T21:59:09.388Z,15.00
2022-10-25T22:01:36.475Z,15.00
2022-10-25T22:04:03.714Z,15.00
2022-10-25T22:06:30.894Z,15.10
2022-10-25T22:08:58.896Z,15.10
2022-10-25T22:11:32.403Z,15.10
2022-10-25T22:14:05.812Z,15.10
2022-10-25T22:16:36.354Z,15.00
2022-10-25T22:19:12.850Z,15.10
2022-10-25T22:21:40.989Z,15.10
2022-10-25T22:24:09.984Z,15.10
2022-10-25T22:26:38.999Z,15.10
2022-10-25T22:29:06.365Z,15.00
2022-10-25T22:31:34.336Z,15.10
2022-10-25T22:34:06.661Z,15.10
2022-10-25T22:36:37.688Z,15.10
2022-10-25T22:39:07.402Z,15.20
2022-10-25T22:41:35.093Z,15.20
2022-10-25T22:44:02.434Z,15.20
2022-10-25T22:46:42.738Z,15.20
2022-10-25T22:49:10.716Z,15.30
2022-10-25T22:51:40.664Z,15.10
2022-10-25T22:54:09.787Z,15.10
2022-10-25T22:56:38.051Z,15.10
2022-10-25T22:59:06.418Z,15.10
2022-10-25T23:01:35.769Z,15.00
2022-10-25T23:04:05.080Z,15.00
2022-10-25T23:06:34.848Z,15.00
2022-10-25T23:09:09.768Z,14.90
2022-10-25T23:11:38.739Z,15.10
2022-10-25T23:14:13.409Z,15.10
2022-10-25T23:16:45.504Z,15.00
2022-10-25T23:19:14.439Z,15.10
2022-10-25T23:21:41.507Z,15.10
2022-10-25T23:24:14.606Z,15.20
2022-10-25T23:26:42.762Z,15.40
2022-10-25T23:29:15.335Z,15.30
2022-10-25T23:31:43.162Z,15.20
2022-10-25T23:34:13.992Z,15.10
2022-10-25T23:36:42.048Z,15.00
2022-10-25T23:39:08.998Z,15.00
2022-10-25T23:41:37.060Z,15.00
2022-10-25T23:44:04.071Z,15.00
2022-10-25T23:46:31.002Z,15.00
2022-10-25T23:48:58.131Z,14.90
2022-10-25T23:51:25.176Z,14.90
2022-10-25T23:53:53.102Z,14.90
2022-10-25T23:56:20.394Z,14.90
2022-10-25T23:58:53.777Z,14.90
